^^
TXWeather Station Historical Data
Daily Summary for August 04, 2020 Units:  Metric    English   Both
Daily Weekly Monthly Yearly Custom
  High: Low: Average:
Temperature: 36.1 °C 26.1 °C 30.1 °C
Dew Point: 26.7 °C 22.2 °C 24 °C
Humidity: 83% 53% 71%
Wind Speed: 20.9km/h 1.6km/h 8.2km/h
Wind Gust: 20.9km/h - -
Wind- - SSW
Pressure: 1019.2 hPa 1015.8 hPa -
Precipitation: 0 mm    
Historical Graphs
 
 
Tabular Data for August 04, 2020
Time Temperature Dew Point Pressure Wind Wind Speed Wind Gust Humidity Rainfall Rate (Hourly) solar
00:04 28.9 °C 23.9 °C 1015.8 hPa SSW 4.8 km/h 6.4 km/h 76% 0 mm 0.00 W/m2
00:09 28.3 °C 23.9 °C 1015.8 hPa SSW 6.4 km/h 6.4 km/h 76% 0 mm 0.00 W/m2
00:14 28.3 °C 23.9 °C 1015.8 hPa SW 8 km/h 11.3 km/h 76% 0 mm 0.00 W/m2
00:19 28.3 °C 23.9 °C 1015.8 hPa SW 6.4 km/h 9.7 km/h 76% 0 mm 0.00 W/m2
00:24 28.3 °C 23.3 °C 1015.8 hPa SSW 8 km/h 8 km/h 75% 0 mm 0.00 W/m2
00:29 28.3 °C 23.9 °C 1015.8 hPa SSW 8 km/h 8 km/h 76% 0 mm 0.00 W/m2
00:34 28.3 °C 23.3 °C 1015.8 hPa SW 6.4 km/h 6.4 km/h 76% 0 mm 0.00 W/m2
00:39 27.8 °C 23.3 °C 1015.8 hPa South 6.4 km/h 6.4 km/h 77% 0 mm 0.00 W/m2
00:44 27.8 °C 23.3 °C 1015.8 hPa South 6.4 km/h 6.4 km/h 77% 0 mm 0.00 W/m2
00:49 27.8 °C 23.3 °C 1015.8 hPa SSW 4.8 km/h 4.8 km/h 78% 0 mm 0.00 W/m2
00:54 27.8 °C 23.3 °C 1015.8 hPa South 3.2 km/h 4.8 km/h 78% 0 mm 0.00 W/m2
00:59 27.8 °C 23.3 °C 1015.8 hPa South 3.2 km/h 3.2 km/h 78% 0 mm 0.00 W/m2
01:04 27.8 °C 23.3 °C 1015.8 hPa SSW 3.2 km/h 6.4 km/h 78% 0 mm 0.00 W/m2
01:09 27.8 °C 23.3 °C 1015.8 hPa SW 3.2 km/h 4.8 km/h 77% 0 mm 0.00 W/m2
01:14 27.8 °C 23.3 °C 1015.8 hPa SW 3.2 km/h 3.2 km/h 78% 0 mm 0.00 W/m2
01:19 27.2 °C 23.3 °C 1015.8 hPa SW 4.8 km/h 4.8 km/h 78% 0 mm 0.00 W/m2
01:24 27.2 °C 23.3 °C 1015.8 hPa SW 3.2 km/h 3.2 km/h 79% 0 mm 0.00 W/m2
01:29 27.2 °C 23.3 °C 1015.8 hPa SW 3.2 km/h 4.8 km/h 79% 0 mm 0.00 W/m2
01:34 27.2 °C 23.3 °C 1015.8 hPa SW 3.2 km/h 4.8 km/h 79% 0 mm 0.00 W/m2
01:39 27.2 °C 23.3 °C 1015.8 hPa WSW 4.8 km/h 4.8 km/h 79% 0 mm 0.00 W/m2
01:44 27.2 °C 23.3 °C 1015.8 hPa SW 4.8 km/h 4.8 km/h 80% 0 mm 0.00 W/m2
01:49 27.2 °C 23.3 °C 1015.8 hPa SW 4.8 km/h 4.8 km/h 80% 0 mm 0.00 W/m2
01:54 27.2 °C 23.9 °C 1015.8 hPa SSW 3.2 km/h 4.8 km/h 81% 0 mm 0.00 W/m2
01:59 27.2 °C 23.9 °C 1015.8 hPa SSW 6.4 km/h 8 km/h 81% 0 mm 0.00 W/m2
02:04 27.2 °C 23.9 °C 1015.8 hPa SSW 8 km/h 8 km/h 81% 0 mm 0.00 W/m2
02:09 27.2 °C 23.9 °C 1015.8 hPa SW 8 km/h 8 km/h 81% 0 mm 0.00 W/m2
02:14 27.2 °C 23.9 °C 1015.8 hPa SSW 4.8 km/h 8 km/h 81% 0 mm 0.00 W/m2
02:19 27.2 °C 23.9 °C 1015.8 hPa SW 6.4 km/h 11.3 km/h 81% 0 mm 0.00 W/m2
02:24 27.2 °C 23.9 °C 1015.8 hPa SSW 6.4 km/h 6.4 km/h 81% 0 mm 0.00 W/m2
02:29 27.2 °C 23.9 °C 1015.8 hPa SSW 4.8 km/h 4.8 km/h 81% 0 mm 0.00 W/m2
02:34 27.2 °C 23.9 °C 1015.8 hPa SSW 9.7 km/h 9.7 km/h 81% 0 mm 0.00 W/m2
02:39 27.2 °C 23.9 °C 1015.8 hPa SW 4.8 km/h 8 km/h 81% 0 mm 0.00 W/m2
02:44 27.2 °C 23.9 °C 1015.8 hPa SSW 6.4 km/h 9.7 km/h 81% 0 mm 0.00 W/m2
02:49 27.2 °C 23.9 °C 1015.8 hPa SW 8 km/h 9.7 km/h 81% 0 mm 0.00 W/m2
02:54 27.2 °C 23.9 °C 1015.8 hPa SSW 4.8 km/h 8 km/h 81% 0 mm 0.00 W/m2
02:59 27.2 °C 23.9 °C 1015.8 hPa SSW 8 km/h 11.3 km/h 82% 0 mm 0.00 W/m2
03:04 27.2 °C 23.9 °C 1015.8 hPa SSW 6.4 km/h 11.3 km/h 82% 0 mm 0.00 W/m2
03:09 27.2 °C 23.9 °C 1015.8 hPa SSW 8 km/h 8 km/h 82% 0 mm 0.00 W/m2
03:14 27.2 °C 23.9 °C 1015.8 hPa SSW 8 km/h 8 km/h 82% 0 mm 0.00 W/m2
03:19 27.2 °C 23.9 °C 1015.8 hPa SSW 6.4 km/h 6.4 km/h 82% 0 mm 0.00 W/m2
03:24 27.2 °C 23.9 °C 1015.8 hPa South 9.7 km/h 9.7 km/h 83% 0 mm 0.00 W/m2
03:29 27.2 °C 23.9 °C 1015.8 hPa SW 6.4 km/h 9.7 km/h 83% 0 mm 0.00 W/m2
03:34 27.2 °C 23.9 °C 1015.8 hPa SSW 6.4 km/h 8 km/h 83% 0 mm 0.00 W/m2
03:39 27.2 °C 23.9 °C 1015.8 hPa SSW 9.7 km/h 9.7 km/h 82% 0 mm 0.00 W/m2
03:44 27.2 °C 23.9 °C 1015.8 hPa SSW 8 km/h 9.7 km/h 82% 0 mm 0.00 W/m2
03:49 27.2 °C 23.9 °C 1015.8 hPa SSW 6.4 km/h 8 km/h 82% 0 mm 0.00 W/m2
03:54 27.2 °C 23.9 °C 1015.8 hPa South 4.8 km/h 6.4 km/h 82% 0 mm 0.00 W/m2
03:59 27.2 °C 23.9 °C 1015.8 hPa SSW 8 km/h 8 km/h 82% 0 mm 0.00 W/m2
04:04 27.2 °C 23.9 °C 1015.8 hPa SSW 4.8 km/h 8 km/h 82% 0 mm 0.00 W/m2
04:09 27.2 °C 23.9 °C 1015.8 hPa SW 8 km/h 9.7 km/h 82% 0 mm 0.00 W/m2
04:14 27.2 °C 23.9 °C 1015.8 hPa SW 9.7 km/h 12.9 km/h 82% 0 mm 0.00 W/m2
04:19 27.2 °C 23.9 °C 1015.8 hPa SW 4.8 km/h 4.8 km/h 82% 0 mm 0.00 W/m2
04:24 27.2 °C 23.9 °C 1015.8 hPa South 6.4 km/h 6.4 km/h 82% 0 mm 0.00 W/m2
04:29 27.2 °C 23.9 °C 1015.8 hPa South 4.8 km/h 6.4 km/h 82% 0 mm 0.00 W/m2
04:34 27.2 °C 23.9 °C 1015.8 hPa SW 8 km/h 8 km/h 83% 0 mm 0.00 W/m2
04:39 27.2 °C 23.9 °C 1015.8 hPa SSW 6.4 km/h 8 km/h 83% 0 mm 0.00 W/m2
04:44 27.2 °C 23.9 °C 1015.8 hPa South 6.4 km/h 8 km/h 82% 0 mm 0.00 W/m2
04:49 27.2 °C 23.9 °C 1015.8 hPa SSW 3.2 km/h 4.8 km/h 82% 0 mm 0.00 W/m2
04:54 27.2 °C 23.9 °C 1015.8 hPa SW 6.4 km/h 6.4 km/h 82% 0 mm 0.00 W/m2
04:59 27.2 °C 23.9 °C 1015.8 hPa SSW 3.2 km/h 8 km/h 82% 0 mm 0.00 W/m2
05:04 27.2 °C 23.9 °C 1015.8 hPa SSW 4.8 km/h 8 km/h 82% 0 mm 0.00 W/m2
05:09 26.7 °C 23.9 °C 1015.8 hPa SSW 3.2 km/h 6.4 km/h 83% 0 mm 0.00 W/m2
05:14 26.7 °C 23.9 °C 1015.8 hPa SW 4.8 km/h 6.4 km/h 83% 0 mm 0.00 W/m2
05:19 26.7 °C 23.9 °C 1015.8 hPa SSW 3.2 km/h 4.8 km/h 83% 0 mm 0.00 W/m2
05:24 26.7 °C 23.9 °C 1015.8 hPa SW 6.4 km/h 6.4 km/h 83% 0 mm 0.00 W/m2
05:29 26.7 °C 23.9 °C 1015.8 hPa SSW 6.4 km/h 6.4 km/h 83% 0 mm 0.00 W/m2
05:34 26.7 °C 23.9 °C 1015.8 hPa SW 6.4 km/h 8 km/h 83% 0 mm 0.00 W/m2
05:39 26.7 °C 23.9 °C 1015.8 hPa SW 4.8 km/h 6.4 km/h 83% 0 mm 0.00 W/m2
05:44 26.7 °C 23.9 °C 1015.8 hPa SW 4.8 km/h 6.4 km/h 83% 0 mm 0.00 W/m2
05:49 26.7 °C 23.3 °C 1015.8 hPa SW 6.4 km/h 8 km/h 82% 0 mm 0.00 W/m2
05:54 26.7 °C 23.3 °C 1015.8 hPa SW 6.4 km/h 8 km/h 82% 0 mm 0.00 W/m2
05:59 26.7 °C 23.3 °C 1015.8 hPa SW 6.4 km/h 6.4 km/h 82% 0 mm 0.00 W/m2
06:04 26.7 °C 23.3 °C 1015.8 hPa WSW 4.8 km/h 4.8 km/h 82% 0 mm 0.00 W/m2
06:09 26.7 °C 23.3 °C 1015.8 hPa SW 6.4 km/h 6.4 km/h 82% 0 mm 0.00 W/m2
06:14 26.7 °C 23.3 °C 1015.8 hPa SW 6.4 km/h 8 km/h 82% 0 mm 0.00 W/m2
06:19 26.7 °C 23.3 °C 1015.8 hPa WSW 8 km/h 8 km/h 82% 0 mm 0.00 W/m2
06:24 26.7 °C 23.3 °C 1015.8 hPa West 3.2 km/h 4.8 km/h 81% 0 mm 0.00 W/m2
06:29 26.7 °C 23.3 °C 1015.8 hPa WSW 6.4 km/h 6.4 km/h 81% 0 mm 0.00 W/m2
06:34 26.7 °C 23.3 °C 1015.8 hPa WSW 6.4 km/h 6.4 km/h 81% 0 mm 0.00 W/m2
06:39 26.7 °C 23.3 °C 1015.8 hPa WSW 4.8 km/h 4.8 km/h 81% 0 mm 0.00 W/m2
06:44 26.7 °C 22.8 °C 1015.8 hPa WSW 4.8 km/h 4.8 km/h 80% 0 mm 0.00 W/m2
06:49 26.7 °C 22.8 °C 1015.8 hPa West 6.4 km/h 6.4 km/h 81% 0 mm 0.00 W/m2
06:54 26.7 °C 22.8 °C 1015.8 hPa West 6.4 km/h 8 km/h 81% 0 mm 5.00 W/m2
06:59 26.7 °C 22.8 °C 1015.8 hPa West 3.2 km/h 3.2 km/h 81% 0 mm 9.00 W/m2
07:04 26.1 °C 22.8 °C 1015.8 hPa West 3.2 km/h 4.8 km/h 82% 0 mm 12.00 W/m2
07:09 26.1 °C 22.8 °C 1015.8 hPa WSW 4.8 km/h 4.8 km/h 82% 0 mm 14.00 W/m2
07:14 26.1 °C 22.8 °C 1015.8 hPa WSW 6.4 km/h 6.4 km/h 82% 0 mm 19.00 W/m2
07:19 26.1 °C 22.8 °C 1015.8 hPa WSW 6.4 km/h 6.4 km/h 82% 0 mm 26.00 W/m2
07:24 26.1 °C 22.8 °C 1015.8 hPa WSW 4.8 km/h 4.8 km/h 82% 0 mm 32.00 W/m2
07:29 26.1 °C 22.8 °C 1015.8 hPa West 6.4 km/h 6.4 km/h 82% 0 mm 39.00 W/m2
07:34 26.1 °C 22.8 °C 1015.8 hPa West 4.8 km/h 4.8 km/h 82% 0 mm 47.00 W/m2
07:39 26.1 °C 22.8 °C 1015.8 hPa West 6.4 km/h 6.4 km/h 82% 0 mm 54.00 W/m2
07:44 26.1 °C 22.8 °C 1015.8 hPa WSW 4.8 km/h 6.4 km/h 82% 0 mm 56.00 W/m2
07:49 26.1 °C 22.8 °C 1015.8 hPa West 11.3 km/h 11.3 km/h 82% 0 mm 58.00 W/m2
07:54 26.1 °C 22.8 °C 1015.8 hPa West 6.4 km/h 11.3 km/h 82% 0 mm 56.00 W/m2
07:59 26.1 °C 22.8 °C 1015.8 hPa WSW 4.8 km/h 6.4 km/h 82% 0 mm 56.00 W/m2
08:04 26.1 °C 22.8 °C 1015.8 hPa WSW 4.8 km/h 6.4 km/h 82% 0 mm 53.00 W/m2
08:09 26.7 °C 23.3 °C 1015.8 hPa WSW 4.8 km/h 4.8 km/h 82% 0 mm 51.00 W/m2
08:14 26.7 °C 23.3 °C 1015.8 hPa WSW 3.2 km/h 3.2 km/h 82% 0 mm 70.00 W/m2
08:19 26.7 °C 23.3 °C 1019.2 hPa West 3.2 km/h 4.8 km/h 82% 0 mm 81.00 W/m2
08:24 26.7 °C 23.3 °C 1015.8 hPa WSW 4.8 km/h 4.8 km/h 81% 0 mm 84.00 W/m2
08:29 26.7 °C 23.3 °C 1019.2 hPa WSW 3.2 km/h 4.8 km/h 81% 0 mm 79.00 W/m2
08:34 26.7 °C 23.3 °C 1019.2 hPa WSW 4.8 km/h 4.8 km/h 82% 0 mm 93.00 W/m2
08:39 26.7 °C 23.3 °C 1019.2 hPa WSW 4.8 km/h 4.8 km/h 81% 0 mm 132.00 W/m2
08:44 26.7 °C 23.3 °C 1019.2 hPa WSW 6.4 km/h 6.4 km/h 81% 0 mm 149.00 W/m2
08:49 27.2 °C 23.3 °C 1019.2 hPa WSW 4.8 km/h 4.8 km/h 81% 0 mm 274.00 W/m2
08:54 27.2 °C 23.3 °C 1019.2 hPa West 4.8 km/h 9.7 km/h 79% 0 mm 390.00 W/m2
08:59 27.8 °C 23.9 °C 1019.2 hPa WSW 6.4 km/h 6.4 km/h 79% 0 mm 420.00 W/m2
09:04 28.3 °C 23.3 °C 1019.2 hPa WSW 4.8 km/h 6.4 km/h 77% 0 mm 420.00 W/m2
09:09 28.3 °C 23.9 °C 1019.2 hPa SW 8 km/h 9.7 km/h 77% 0 mm 316.00 W/m2
09:14 28.3 °C 22.8 °C 1019.2 hPa WSW 6.4 km/h 9.7 km/h 74% 0 mm 153.00 W/m2
09:19 27.8 °C 22.8 °C 1019.2 hPa WSW 6.4 km/h 11.3 km/h 73% 0 mm 162.00 W/m2
09:24 28.3 °C 22.8 °C 1019.2 hPa WSW 6.4 km/h 6.4 km/h 74% 0 mm 181.00 W/m2
09:29 28.3 °C 23.3 °C 1019.2 hPa West 9.7 km/h 9.7 km/h 75% 0 mm 183.00 W/m2
09:34 28.9 °C 23.9 °C 1019.2 hPa West 4.8 km/h 6.4 km/h 75% 0 mm 223.00 W/m2
09:39 28.9 °C 23.3 °C 1019.2 hPa NW 6.4 km/h 6.4 km/h 72% 0 mm 343.00 W/m2
09:44 28.9 °C 23.3 °C 1019.2 hPa WSW 9.7 km/h 9.7 km/h 73% 0 mm 545.00 W/m2
09:49 29.4 °C 23.9 °C 1019.2 hPa WSW 9.7 km/h 11.3 km/h 72% 0 mm 541.00 W/m2
09:54 29.4 °C 23.9 °C 1019.2 hPa WSW 6.4 km/h 6.4 km/h 73% 0 mm 564.00 W/m2
09:59 30 °C 23.9 °C 1019.2 hPa West 6.4 km/h 8 km/h 71% 0 mm 584.00 W/m2
10:04 30 °C 24.4 °C 1019.2 hPa West 6.4 km/h 11.3 km/h 72% 0 mm 608.00 W/m2
10:09 30 °C 24.4 °C 1019.2 hPa WSW 8 km/h 8 km/h 72% 0 mm 619.00 W/m2
10:14 30.6 °C 24.4 °C 1019.2 hPa WSW 8 km/h 9.7 km/h 70% 0 mm 622.00 W/m2
10:19 30.6 °C 23.9 °C 1019.2 hPa WSW 14.5 km/h 14.5 km/h 69% 0 mm 631.00 W/m2
10:24 30.6 °C 23.9 °C 1019.2 hPa WSW 16.1 km/h 16.1 km/h 66% 0 mm 638.00 W/m2
10:29 30.6 °C 23.9 °C 1019.2 hPa West 14.5 km/h 14.5 km/h 66% 0 mm 638.00 W/m2
10:34 31.1 °C 24.4 °C 1019.2 hPa SW 8 km/h 9.7 km/h 68% 0 mm 663.00 W/m2
10:39 31.1 °C 24.4 °C 1019.2 hPa SW 12.9 km/h 12.9 km/h 67% 0 mm 575.00 W/m2
10:44 31.1 °C 23.3 °C 1019.2 hPa WSW 12.9 km/h 12.9 km/h 64% 0 mm 691.00 W/m2
10:49 31.1 °C 23.3 °C 1019.2 hPa West 9.7 km/h 12.9 km/h 64% 0 mm 696.00 W/m2
10:54 31.7 °C 23.9 °C 1019.2 hPa WSW 12.9 km/h 12.9 km/h 64% 0 mm 696.00 W/m2
10:59 31.7 °C 23.9 °C 1019.2 hPa WSW 12.9 km/h 12.9 km/h 64% 0 mm 701.00 W/m2
11:04 31.7 °C 23.9 °C 1019.2 hPa West 9.7 km/h 11.3 km/h 63% 0 mm 742.00 W/m2
11:09 31.7 °C 23.9 °C 1019.2 hPa West 11.3 km/h 11.3 km/h 62% 0 mm 758.00 W/m2
11:14 32.2 °C 25 °C 1019.2 hPa SW 8 km/h 11.3 km/h 66% 0 mm 761.00 W/m2
11:19 32.8 °C 24.4 °C 1019.2 hPa SW 4.8 km/h 8 km/h 64% 0 mm 775.00 W/m2
11:24 32.8 °C 25 °C 1019.2 hPa SSW 9.7 km/h 9.7 km/h 65% 0 mm 782.00 W/m2
11:29 32.8 °C 25 °C 1019.2 hPa SW 8 km/h 8 km/h 64% 0 mm 788.00 W/m2
11:34 32.8 °C 25 °C 1019.2 hPa WSW 11.3 km/h 11.3 km/h 64% 0 mm 803.00 W/m2
11:39 32.2 °C 24.4 °C 1019.2 hPa West 11.3 km/h 11.3 km/h 63% 0 mm 812.00 W/m2
11:44 32.8 °C 25.6 °C 1019.2 hPa West 6.4 km/h 9.7 km/h 65% 0 mm 823.00 W/m2
11:49 33.3 °C 25.6 °C 1019.2 hPa SSW 11.3 km/h 11.3 km/h 65% 0 mm 830.00 W/m2
11:54 32.8 °C 25.6 °C 1019.2 hPa SW 11.3 km/h 17.7 km/h 65% 0 mm 842.00 W/m2
11:59 33.3 °C 25 °C 1019.2 hPa SW 4.8 km/h 11.3 km/h 63% 0 mm 849.00 W/m2
12:04 33.3 °C 25.6 °C 1019.2 hPa SW 12.9 km/h 12.9 km/h 65% 0 mm 854.00 W/m2
12:09 33.3 °C 25.6 °C 1019.2 hPa SSW 8 km/h 9.7 km/h 65% 0 mm 861.00 W/m2
12:14 33.3 °C 25.6 °C 1019.2 hPa South 8 km/h 14.5 km/h 64% 0 mm 868.00 W/m2
12:19 33.3 °C 25.6 °C 1019.2 hPa WSW 14.5 km/h 14.5 km/h 64% 0 mm 882.00 W/m2
12:24 33.3 °C 25 °C 1019.2 hPa West 6.4 km/h 9.7 km/h 62% 0 mm 886.00 W/m2
12:29 33.9 °C 25.6 °C 1019.2 hPa SW 8 km/h 9.7 km/h 63% 0 mm 893.00 W/m2
12:34 33.9 °C 25.6 °C 1019.2 hPa SW 12.9 km/h 12.9 km/h 62% 0 mm 895.00 W/m2
12:39 33.9 °C 26.1 °C 1019.2 hPa SSW 11.3 km/h 12.9 km/h 64% 0 mm 898.00 W/m2
12:44 33.9 °C 26.1 °C 1019.2 hPa South 11.3 km/h 12.9 km/h 64% 0 mm 907.00 W/m2
12:49 33.9 °C 26.1 °C 1015.8 hPa SSW 8 km/h 11.3 km/h 65% 0 mm 914.00 W/m2
12:54 34.4 °C 25.6 °C 1019.2 hPa WSW 9.7 km/h 12.9 km/h 61% 0 mm 921.00 W/m2
12:59 33.9 °C 25.6 °C 1019.2 hPa West 12.9 km/h 12.9 km/h 61% 0 mm 921.00 W/m2
13:04 33.9 °C 25.6 °C 1019.2 hPa WNW 6.4 km/h 6.4 km/h 61% 0 mm 944.00 W/m2
13:09 33.9 °C 25 °C 1019.2 hPa West 12.9 km/h 12.9 km/h 59% 0 mm 962.00 W/m2
13:14 33.9 °C 25.6 °C 1019.2 hPa WSW 14.5 km/h 17.7 km/h 62% 0 mm 977.00 W/m2
13:19 34.4 °C 25 °C 1015.8 hPa WSW 14.5 km/h 17.7 km/h 58% 0 mm 963.00 W/m2
13:24 35 °C 25 °C 1015.8 hPa WSW 12.9 km/h 12.9 km/h 58% 0 mm 969.00 W/m2
13:29 34.4 °C 25.6 °C 1015.8 hPa SSW 11.3 km/h 16.1 km/h 60% 0 mm 958.00 W/m2
13:34 35 °C 25 °C 1015.8 hPa SSW 6.4 km/h 8 km/h 58% 0 mm 946.00 W/m2
13:39 35 °C 25.6 °C 1015.8 hPa SSW 16.1 km/h 16.1 km/h 58% 0 mm 944.00 W/m2
13:44 35 °C 25.6 °C 1015.8 hPa SSW 8 km/h 16.1 km/h 59% 0 mm 935.00 W/m2
13:49 35 °C 25 °C 1015.8 hPa South 11.3 km/h 11.3 km/h 57% 0 mm 951.00 W/m2
13:54 35 °C 25 °C 1015.8 hPa WSW 9.7 km/h 12.9 km/h 57% 0 mm 972.00 W/m2
13:59 35 °C 25 °C 1015.8 hPa WSW 9.7 km/h 9.7 km/h 56% 0 mm 972.00 W/m2
14:04 35 °C 25 °C 1015.8 hPa WSW 11.3 km/h 16.1 km/h 56% 0 mm 949.00 W/m2
14:09 35 °C 25 °C 1015.8 hPa WSW 11.3 km/h 11.3 km/h 56% 0 mm 947.00 W/m2
14:14 35.6 °C 25.6 °C 1015.8 hPa WNW 11.3 km/h 12.9 km/h 56% 0 mm 944.00 W/m2
14:19 35.6 °C 25.6 °C 1015.8 hPa WSW 14.5 km/h 14.5 km/h 58% 0 mm 947.00 W/m2
14:24 35 °C 25 °C 1015.8 hPa West 16.1 km/h 16.1 km/h 55% 0 mm 949.00 W/m2
14:29 35.6 °C 25.6 °C 1015.8 hPa WSW 16.1 km/h 17.7 km/h 58% 0 mm 951.00 W/m2
14:34 35.6 °C 25.6 °C 1015.8 hPa WSW 12.9 km/h 14.5 km/h 58% 0 mm 979.00 W/m2
14:39 35.6 °C 25 °C 1015.8 hPa West 12.9 km/h 14.5 km/h 55% 0 mm 979.00 W/m2
14:44 35.6 °C 24.4 °C 1015.8 hPa WSW 14.5 km/h 14.5 km/h 55% 0 mm 981.00 W/m2
14:49 35.6 °C 25.6 °C 1015.8 hPa SSW 14.5 km/h 14.5 km/h 58% 0 mm 976.00 W/m2
14:54 35.6 °C 26.1 °C 1015.8 hPa WSW 11.3 km/h 14.5 km/h 58% 0 mm 939.00 W/m2
14:59 35.6 °C 26.7 °C 1015.8 hPa SW 12.9 km/h 14.5 km/h 61% 0 mm 921.00 W/m2
15:04 35.6 °C 26.1 °C 1015.8 hPa SSW 17.7 km/h 17.7 km/h 58% 0 mm 921.00 W/m2
15:09 35.6 °C 25.6 °C 1015.8 hPa SW 12.9 km/h 12.9 km/h 56% 0 mm 916.00 W/m2
15:14 35.6 °C 25.6 °C 1015.8 hPa South 14.5 km/h 14.5 km/h 56% 0 mm 896.00 W/m2
15:19 35.6 °C 25.6 °C 1015.8 hPa WSW 16.1 km/h 16.1 km/h 56% 0 mm 881.00 W/m2
15:24 35.6 °C 25 °C 1015.8 hPa WSW 12.9 km/h 12.9 km/h 55% 0 mm 932.00 W/m2
15:29 35.6 °C 25.6 °C 1015.8 hPa WSW 16.1 km/h 16.1 km/h 56% 0 mm 898.00 W/m2
15:34 35.6 °C 25 °C 1015.8 hPa WSW 12.9 km/h 16.1 km/h 54% 0 mm 872.00 W/m2
15:39 35.6 °C 25.6 °C 1015.8 hPa WSW 12.9 km/h 14.5 km/h 56% 0 mm 861.00 W/m2
15:44 36.1 °C 25.6 °C 1015.8 hPa WSW 9.7 km/h 11.3 km/h 55% 0 mm 847.00 W/m2
15:49 36.1 °C 26.1 °C 1015.8 hPa SW 16.1 km/h 16.1 km/h 56% 0 mm 830.00 W/m2
15:54 35.6 °C 25 °C 1015.8 hPa South 14.5 km/h 17.7 km/h 55% 0 mm 814.00 W/m2
15:59 36.1 °C 25.6 °C 1015.8 hPa SW 11.3 km/h 14.5 km/h 55% 0 mm 803.00 W/m2
16:04 36.1 °C 25 °C 1015.8 hPa WSW 12.9 km/h 12.9 km/h 54% 0 mm 805.00 W/m2
16:09 36.1 °C 25 °C 1015.8 hPa WSW 14.5 km/h 17.7 km/h 54% 0 mm 803.00 W/m2
16:14 36.1 °C 24.4 °C 1015.8 hPa SW 11.3 km/h 16.1 km/h 53% 0 mm 842.00 W/m2
16:19 35.6 °C 23.9 °C 1015.8 hPa SW 11.3 km/h 16.1 km/h 54% 0 mm 250.00 W/m2
16:24 34.4 °C 24.4 °C 1015.8 hPa SSW 12.9 km/h 14.5 km/h 55% 0 mm 269.00 W/m2
16:29 34.4 °C 25 °C 1015.8 hPa SW 6.4 km/h 12.9 km/h 58% 0 mm 278.00 W/m2
16:34 34.4 °C 25 °C 1015.8 hPa WSW 16.1 km/h 16.1 km/h 58% 0 mm 290.00 W/m2
16:39 34.4 °C 24.4 °C 1015.8 hPa West 11.3 km/h 12.9 km/h 57% 0 mm 278.00 W/m2
16:44 34.4 °C 24.4 °C 1015.8 hPa SW 6.4 km/h 12.9 km/h 57% 0 mm 234.00 W/m2
16:49 34.4 °C 24.4 °C 1015.8 hPa SW 11.3 km/h 12.9 km/h 57% 0 mm 276.00 W/m2
16:54 34.4 °C 24.4 °C 1015.8 hPa SW 9.7 km/h 12.9 km/h 57% 0 mm 302.00 W/m2
16:59 34.4 °C 25 °C 1015.8 hPa West 9.7 km/h 12.9 km/h 58% 0 mm 341.00 W/m2
17:04 34.4 °C 24.4 °C 1015.8 hPa SW 16.1 km/h 16.1 km/h 56% 0 mm 707.00 W/m2
17:09 35 °C 23.9 °C 1015.8 hPa WSW 14.5 km/h 14.5 km/h 54% 0 mm 694.00 W/m2
17:14 34.4 °C 23.9 °C 1015.8 hPa West 14.5 km/h 14.5 km/h 55% 0 mm 251.00 W/m2
17:19 34.4 °C 23.9 °C 1015.8 hPa WSW 9.7 km/h 14.5 km/h 55% 0 mm 264.00 W/m2
17:24 34.4 °C 24.4 °C 1015.8 hPa West 12.9 km/h 12.9 km/h 56% 0 mm 251.00 W/m2
17:29 34.4 °C 24.4 °C 1015.8 hPa NW 9.7 km/h 16.1 km/h 56% 0 mm 299.00 W/m2
17:34 34.4 °C 24.4 °C 1015.8 hPa North 14.5 km/h 16.1 km/h 61% 0 mm 190.00 W/m2
17:39 32.8 °C 24.4 °C 1015.8 hPa North 14.5 km/h 14.5 km/h 63% 0 mm 141.00 W/m2
17:44 32.2 °C 24.4 °C 1015.8 hPa NNE 16.1 km/h 19.3 km/h 64% 0 mm 123.00 W/m2
17:49 31.7 °C 23.9 °C 1015.8 hPa NNE 11.3 km/h 19.3 km/h 64% 0 mm 134.00 W/m2
17:54 31.7 °C 23.9 °C 1015.8 hPa North 14.5 km/h 16.1 km/h 65% 0 mm 156.00 W/m2
17:59 31.1 °C 23.9 °C 1015.8 hPa North 11.3 km/h 12.9 km/h 66% 0 mm 162.00 W/m2
18:04 31.1 °C 23.9 °C 1015.8 hPa North 6.4 km/h 9.7 km/h 66% 0 mm 169.00 W/m2
18:09 31.1 °C 23.9 °C 1015.8 hPa North 9.7 km/h 9.7 km/h 66% 0 mm 204.00 W/m2
18:14 31.1 °C 24.4 °C 1015.8 hPa East 6.4 km/h 9.7 km/h 66% 0 mm 272.00 W/m2
18:19 31.1 °C 23.9 °C 1015.8 hPa East 11.3 km/h 11.3 km/h 65% 0 mm 202.00 W/m2
18:24 31.1 °C 23.9 °C 1015.8 hPa ESE 11.3 km/h 11.3 km/h 68% 0 mm 171.00 W/m2
18:29 30.6 °C 23.9 °C 1015.8 hPa SE 4.8 km/h 6.4 km/h 69% 0 mm 127.00 W/m2
18:34 30.6 °C 24.4 °C 1015.8 hPa ENE 11.3 km/h 11.3 km/h 69% 0 mm 250.00 W/m2
18:39 31.1 °C 24.4 °C 1015.8 hPa NE 4.8 km/h 11.3 km/h 68% 0 mm 325.00 W/m2
18:44 31.1 °C 24.4 °C 1015.8 hPa East 8 km/h 8 km/h 67% 0 mm 315.00 W/m2
18:49 31.1 °C 23.9 °C 1015.8 hPa East 6.4 km/h 6.4 km/h 66% 0 mm 299.00 W/m2
18:54 31.1 °C 23.9 °C 1015.8 hPa ESE 8 km/h 8 km/h 66% 0 mm 276.00 W/m2
18:59 31.1 °C 23.9 °C 1015.8 hPa NE 6.4 km/h 6.4 km/h 67% 0 mm 255.00 W/m2
19:04 31.1 °C 23.9 °C 1015.8 hPa NE 4.8 km/h 4.8 km/h 66% 0 mm 251.00 W/m2
19:09 31.1 °C 24.4 °C 1015.8 hPa NNE 1.6 km/h 3.2 km/h 66% 0 mm 248.00 W/m2
19:14 31.1 °C 24.4 °C 1015.8 hPa NNE 4.8 km/h 4.8 km/h 66% 0 mm 146.00 W/m2
19:19 31.1 °C 23.9 °C 1015.8 hPa ENE 3.2 km/h 4.8 km/h 66% 0 mm 120.00 W/m2
19:24 31.1 °C 23.9 °C 1015.8 hPa ENE 4.8 km/h 4.8 km/h 66% 0 mm 104.00 W/m2
19:29 30.6 °C 23.9 °C 1015.8 hPa ENE 4.8 km/h 4.8 km/h 67% 0 mm 90.00 W/m2
19:34 30.6 °C 23.9 °C 1015.8 hPa ENE 4.8 km/h 4.8 km/h 67% 0 mm 76.00 W/m2
19:39 30.6 °C 23.9 °C 1015.8 hPa NNE 4.8 km/h 4.8 km/h 67% 0 mm 44.00 W/m2
19:44 30.6 °C 23.9 °C 1015.8 hPa ENE 4.8 km/h 4.8 km/h 68% 0 mm 28.00 W/m2
19:49 30.6 °C 23.9 °C 1015.8 hPa East 4.8 km/h 4.8 km/h 68% 0 mm 21.00 W/m2
19:54 30.6 °C 23.9 °C 1015.8 hPa ESE 3.2 km/h 4.8 km/h 69% 0 mm 16.00 W/m2
19:59 30.6 °C 23.9 °C 1015.8 hPa ESE 6.4 km/h 6.4 km/h 69% 0 mm 12.00 W/m2
20:04 30.6 °C 23.9 °C 1015.8 hPa SE 4.8 km/h 6.4 km/h 69% 0 mm 9.00 W/m2
20:09 30.6 °C 23.9 °C 1015.8 hPa ESE 4.8 km/h 4.8 km/h 69% 0 mm 5.00 W/m2
20:14 30 °C 23.9 °C 1015.8 hPa ESE 6.4 km/h 6.4 km/h 68% 0 mm 0.00 W/m2
20:19 30 °C 23.9 °C 1015.8 hPa SE 3.2 km/h 3.2 km/h 69% 0 mm 0.00 W/m2
20:24 30 °C 23.9 °C 1015.8 hPa ESE 6.4 km/h 6.4 km/h 69% 0 mm 0.00 W/m2
20:29 30 °C 23.9 °C 1015.8 hPa SE 6.4 km/h 6.4 km/h 69% 0 mm 0.00 W/m2
20:34 30 °C 23.9 °C 1015.8 hPa SE 3.2 km/h 3.2 km/h 69% 0 mm 0.00 W/m2
20:39 30 °C 23.9 °C 1015.8 hPa SE 4.8 km/h 4.8 km/h 70% 0 mm 0.00 W/m2
20:44 30 °C 23.9 °C 1015.8 hPa SE 6.4 km/h 6.4 km/h 70% 0 mm 0.00 W/m2
20:49 30 °C 23.9 °C 1015.8 hPa SSE 8 km/h 9.7 km/h 70% 0 mm 0.00 W/m2
20:54 30 °C 23.9 °C 1015.8 hPa SSE 9.7 km/h 9.7 km/h 71% 0 mm 0.00 W/m2
20:59 30 °C 23.9 °C 1015.8 hPa SE 12.9 km/h 12.9 km/h 70% 0 mm 0.00 W/m2
21:04 30 °C 23.9 °C 1015.8 hPa SE 16.1 km/h 17.7 km/h 70% 0 mm 0.00 W/m2
21:09 30 °C 23.9 °C 1015.8 hPa SE 14.5 km/h 17.7 km/h 70% 0 mm 0.00 W/m2
21:14 30 °C 23.9 °C 1015.8 hPa SE 20.9 km/h 20.9 km/h 70% 0 mm 0.00 W/m2
21:19 30 °C 23.9 °C 1015.8 hPa SE 12.9 km/h 14.5 km/h 70% 0 mm 0.00 W/m2
21:24 29.4 °C 23.9 °C 1015.8 hPa SSE 16.1 km/h 16.1 km/h 71% 0 mm 0.00 W/m2
21:29 29.4 °C 23.9 °C 1015.8 hPa SE 8 km/h 9.7 km/h 71% 0 mm 0.00 W/m2
21:34 29.4 °C 23.9 °C 1015.8 hPa SE 8 km/h 11.3 km/h 71% 0 mm 0.00 W/m2
21:39 29.4 °C 23.9 °C 1015.8 hPa SE 8 km/h 11.3 km/h 72% 0 mm 0.00 W/m2
21:44 28.9 °C 23.3 °C 1015.8 hPa SE 8 km/h 8 km/h 72% 0 mm 0.00 W/m2
21:49 28.9 °C 23.3 °C 1015.8 hPa ESE 6.4 km/h 9.7 km/h 72% 0 mm 0.00 W/m2
21:54 28.9 °C 23.3 °C 1015.8 hPa SE 4.8 km/h 9.7 km/h 72% 0 mm 0.00 W/m2
21:59 28.9 °C 23.9 °C 1015.8 hPa SSE 6.4 km/h 8 km/h 73% 0 mm 0.00 W/m2
22:04 28.9 °C 23.3 °C 1015.8 hPa SSE 6.4 km/h 8 km/h 73% 0 mm 0.00 W/m2
22:09 28.9 °C 23.3 °C 1015.8 hPa SSE 6.4 km/h 8 km/h 74% 0 mm 0.00 W/m2
22:14 28.3 °C 23.3 °C 1015.8 hPa SSE 6.4 km/h 8 km/h 74% 0 mm 0.00 W/m2
22:19 28.3 °C 23.3 °C 1015.8 hPa SSE 8 km/h 8 km/h 75% 0 mm 0.00 W/m2
22:24 28.3 °C 23.3 °C 1015.8 hPa South 9.7 km/h 9.7 km/h 75% 0 mm 0.00 W/m2
22:29 28.3 °C 23.3 °C 1015.8 hPa SSE 8 km/h 9.7 km/h 74% 0 mm 0.00 W/m2
22:34 28.3 °C 23.3 °C 1015.8 hPa South 9.7 km/h 9.7 km/h 74% 0 mm 0.00 W/m2
22:39 28.3 °C 22.8 °C 1015.8 hPa South 9.7 km/h 9.7 km/h 73% 0 mm 0.00 W/m2
22:44 28.3 °C 22.8 °C 1015.8 hPa SSE 8 km/h 8 km/h 73% 0 mm 0.00 W/m2
22:49 28.3 °C 22.8 °C 1015.8 hPa SSE 6.4 km/h 8 km/h 73% 0 mm 0.00 W/m2
22:54 28.3 °C 22.8 °C 1015.8 hPa SSE 8 km/h 9.7 km/h 73% 0 mm 0.00 W/m2
22:59 28.3 °C 22.8 °C 1015.8 hPa South 6.4 km/h 9.7 km/h 73% 0 mm 0.00 W/m2
23:04 28.3 °C 22.8 °C 1015.8 hPa SSE 6.4 km/h 6.4 km/h 73% 0 mm 0.00 W/m2
23:09 27.8 °C 22.8 °C 1015.8 hPa South 6.4 km/h 8 km/h 73% 0 mm 0.00 W/m2
23:14 27.8 °C 22.8 °C 1015.8 hPa South 8 km/h 8 km/h 73% 0 mm 0.00 W/m2
23:19 27.8 °C 22.8 °C 1015.8 hPa South 3.2 km/h 4.8 km/h 74% 0 mm 0.00 W/m2
23:24 27.8 °C 22.8 °C 1015.8 hPa South 6.4 km/h 6.4 km/h 74% 0 mm 0.00 W/m2
23:29 27.8 °C 22.2 °C 1015.8 hPa South 3.2 km/h 6.4 km/h 73% 0 mm 0.00 W/m2
23:34 27.8 °C 22.2 °C 1015.8 hPa South 9.7 km/h 9.7 km/h 73% 0 mm 0.00 W/m2
23:39 27.8 °C 22.2 °C 1015.8 hPa South 6.4 km/h 8 km/h 72% 0 mm 0.00 W/m2
23:44 27.8 °C 22.2 °C 1015.8 hPa South 8 km/h 8 km/h 72% 0 mm 0.00 W/m2
23:49 27.8 °C 22.2 °C 1015.8 hPa SSE 9.7 km/h 9.7 km/h 73% 0 mm 0.00 W/m2
23:54 27.8 °C 22.2 °C 1015.8 hPa SSE 6.4 km/h 9.7 km/h 73% 0 mm 0.00 W/m2
23:59 27.8 °C 22.2 °C 1015.8 hPa SSE 6.4 km/h 6.4 km/h 72% 0 mm 0.00 W/m2
Villages of Bridgestone, Spring, TX USA
Compliments of Weather Underground - 4 mb